HRO weather

Boone County Airport
Harrison, Arkansas, United States

Public forecast

Using degrees Fahrenheit for public forecast. Weather courtesy of forecast.io.

METAR (pilot weather report)

Retrieved 2019/09/19 10:53 UTC (60 minutes ago):

KHRO 191053Z AUTO 00000KT 9SM CLR 20/17 A3003 RMK AO2 SLP151 T02000172

TAF (pilot weather forecast)

Retrieved 2019/09/19 06:22 UTC (6 hours ago):

TAF KHRO 190520Z 1906/2006 16008KT P6SM SKC FM191800 14010KT P6SM SCT250 FM192000 13009G15KT P6SM FEW060